Archival Weather

Granbury Rgnl

Granbury, Texas (KGDJ)

Report from: Monday, January 29, 2024 8:55 AM UTC
Current time: Tuesday, June 18, 2024 1:27 PM UTC

Current weather – Weather history – Daily summaries
Weather forecast

Temperature2.7°C (36.9°F)
Wind chill1.3°C (34.3°F)
Dew point1.2°C (34.2°F)
Winds 3 kts (1.5 m/s, 3.5 mph) East-Southeast (120°)
Visibility10 mi. (16.1 km)
Clouds Sky clear
Altimeter30.34 in.Hg (1027 mB)
Relative humidity90 %
Density altitude-1,876 ft. (-572 m)
Remarks Fully automated report
Automated weather observing station with precipitation discriminator
Flight conditions Visual Meteorological Conditions
Raw dataKGDJ 290855Z AUTO 12003KT 10SM CLR 03/01 A3034 RMK AO2 T00270012
An error has occurred. This application may no longer respond until reloaded. Reload 🗙